Time;durP1;ratioP1;P1;durP2;ratioP2;P2;SDS_P1;SDS_P2;PMS_P1;PMS_P2;Temp;Humidity;BMP_temperature;BMP_pressure;BME280_temperature;BME280_humidity;BME280_pressure;Samples;Min_cycle;Max_cycle;Signal;HPM_P1;HPM_P2
2021/07/18 00:00:59;;;;;;;23.50;12.55;;;;;;;18.68;75.55;99445.78;3585465;40;20076;-70
2021/07/18 00:03:28;;;;;;;14.98;13.02;;;;;;;18.68;75.25;99435.09;3592595;40;20065;-69
2021/07/18 00:05:55;;;;;;;16.85;13.15;;;;;;;18.69;74.88;99438.56;3592523;40;20072;-69
2021/07/18 00:08:23;;;;;;;16.88;12.57;;;;;;;18.64;75.44;99441.13;3582396;40;20069;-69
2021/07/18 00:10:52;;;;;;;17.33;12.23;;;;;;;18.59;75.30;99443.69;3583052;40;20080;-69
2021/07/18 00:13:20;;;;;;;14.82;12.52;;;;;;;18.59;75.01;99438.34;3592459;40;20040;-70
2021/07/18 00:15:49;;;;;;;15.50;12.07;;;;;;;18.58;75.06;99445.56;3592654;40;20048;-69
2021/07/18 00:18:16;;;;;;;16.52;12.23;;;;;;;18.56;75.21;99442.28;3591920;40;20141;-70
2021/07/18 00:20:46;;;;;;;15.82;11.68;;;;;;;18.50;74.67;99440.53;3592611;40;20055;-69
2021/07/18 00:23:14;;;;;;;13.40;11.60;;;;;;;18.44;75.13;99438.75;3591875;40;20051;-69
2021/07/18 00:25:42;;;;;;;17.67;13.73;;;;;;;18.42;74.96;99443.53;3583325;40;20050;-69
2021/07/18 00:28:10;;;;;;;16.55;11.27;;;;;;;18.25;75.28;99441.50;3581893;40;20456;-71
2021/07/18 00:30:38;;;;;;;12.98;11.57;;;;;;;18.24;75.70;99441.69;3580708;40;20064;-70
2021/07/18 00:33:06;;;;;;;17.40;12.20;;;;;;;18.24;75.33;99444.38;3584553;40;20055;-70
2021/07/18 00:35:37;;;;;;;12.35;11.07;;;;;;;18.21;75.71;99451.03;3594697;40;20060;-71
2021/07/18 00:38:07;;;;;;;13.90;12.00;;;;;;;18.21;75.74;99447.53;3594281;40;20043;-71
2021/07/18 00:40:34;;;;;;;18.83;13.07;;;;;;;18.12;75.92;99444.31;3585551;40;20040;-70
2021/07/18 00:43:03;;;;;;;16.15;11.48;;;;;;;18.08;75.76;99443.13;3583478;40;20044;-71
2021/07/18 00:45:31;;;;;;;15.93;13.00;;;;;;;18.03;75.66;99451.84;3590848;40;20049;-70
2021/07/18 00:47:59;;;;;;;17.50;11.07;;;;;;;17.96;75.92;99451.13;3590714;40;20044;-70
2021/07/18 00:50:28;;;;;;;14.15;10.80;;;;;;;17.92;76.42;99454.47;3581544;40;20044;-70
2021/07/18 00:52:56;;;;;;;18.55;11.80;;;;;;;17.88;76.00;99448.78;3580990;40;20395;-69
2021/07/18 00:55:26;;;;;;;15.50;11.50;;;;;;;17.83;76.32;99449.41;3589892;40;20113;-70
2021/07/18 00:57:54;;;;;;;14.95;11.15;;;;;;;17.85;76.46;99454.56;3590057;40;20100;-70
2021/07/18 01:00:22;;;;;;;15.50;10.73;;;;;;;17.85;76.32;99451.88;3590384;40;20048;-70
2021/07/18 01:02:54;;;;;;;13.48;10.55;;;;;;;17.90;76.16;99456.56;3590072;40;21856;-70
2021/07/18 01:05:22;;;;;;;15.98;10.73;;;;;;;17.92;75.72;99454.47;3590183;40;20041;-70
2021/07/18 01:07:51;;;;;;;13.27;9.27;;;;;;;17.86;75.65;99450.03;3589960;40;20044;-70
2021/07/18 01:10:19;;;;;;;13.32;10.27;;;;;;;17.86;75.60;99458.84;3589372;40;20063;-70
2021/07/18 01:12:48;;;;;;;12.05;10.07;;;;;;;17.86;75.41;99455.38;3580822;40;20055;-69
2021/07/18 01:15:36;;;;;;;18.48;10.68;;;;;;;17.75;75.52;99454.25;3580757;40;20056;-69
2021/07/18 01:18:04;;;;;;;17.00;10.13;;;;;;;17.54;76.29;99456.28;3592018;40;20048;-70
2021/07/18 01:20:33;;;;;;;13.80;9.43;;;;;;;17.53;76.54;99449.31;3593285;40;20051;-70
2021/07/18 01:23:02;;;;;;;13.63;9.82;;;;;;;17.51;76.15;99450.56;3584986;40;20321;-69
2021/07/18 01:25:30;;;;;;;17.48;9.65;;;;;;;17.45;76.16;99454.13;3585384;40;20072;-70
2021/07/18 01:27:58;;;;;;;13.30;9.68;;;;;;;17.37;76.22;99451.75;3582511;40;20343;-69
2021/07/18 01:30:26;;;;;;;15.60;10.02;;;;;;;17.38;76.48;99450.72;3581177;40;20049;-70
2021/07/18 01:32:53;;;;;;;11.20;9.52;;;;;;;17.43;76.46;99453.53;3581066;40;20055;-69
2021/07/18 01:35:21;;;;;;;12.88;10.23;;;;;;;17.40;76.49;99457.47;3581215;40;20044;-70
2021/07/18 01:37:50;;;;;;;14.75;10.38;;;;;;;17.33;76.11;99462.06;3590746;40;20056;-69
2021/07/18 01:40:19;;;;;;;12.18;10.27;;;;;;;17.32;76.33;99455.91;3592056;40;20377;-70
2021/07/18 01:42:47;;;;;;;15.40;10.90;;;;;;;17.33;75.93;99452.19;3593372;40;20084;-69
2021/07/18 01:45:15;;;;;;;16.45;10.27;;;;;;;17.30;76.66;99459.81;3593005;40;20048;-69
2021/07/18 01:47:42;;;;;;;15.05;10.45;;;;;;;17.30;76.74;99452.63;3581303;40;20040;-69
2021/07/18 01:50:11;;;;;;;11.63;10.13;;;;;;;17.26;76.46;99451.44;3589588;40;20052;-69
2021/07/18 01:52:39;;;;;;;18.13;10.13;;;;;;;17.27;76.47;99444.25;3590177;40;20048;-69
2021/07/18 01:55:08;;;;;;;10.88;8.68;;;;;;;17.19;75.98;99450.69;3590255;40;20059;-69
2021/07/18 01:57:37;;;;;;;10.38;9.27;;;;;;;17.17;76.07;99450.09;3589832;40;20043;-69
2021/07/18 02:00:07;;;;;;;14.55;9.73;;;;;;;17.12;76.21;99451.78;3589559;40;20052;-69
2021/07/18 02:02:41;;;;;;;18.80;9.85;;;;;;;17.05;76.29;99451.84;3590105;40;20122;-69
2021/07/18 02:05:10;;;;;;;12.82;9.15;;;;;;;16.95;76.37;99448.84;3579107;40;20056;-69
2021/07/18 02:07:38;;;;;;;16.08;9.35;;;;;;;16.84;76.58;99447.69;3589438;40;20045;-69
2021/07/18 02:10:07;;;;;;;13.88;9.85;;;;;;;16.82;76.63;99445.25;3579497;40;20354;-69
2021/07/18 02:12:38;;;;;;;11.48;8.70;;;;;;;16.78;76.90;99453.91;3579655;40;20059;-70
2021/07/18 02:15:07;;;;;;;13.77;9.30;;;;;;;16.75;76.23;99455.16;3589108;40;20040;-69
2021/07/18 02:17:35;;;;;;;14.45;10.02;;;;;;;16.74;76.73;99445.53;3588951;40;20040;-69
2021/07/18 02:20:05;;;;;;;12.85;8.93;;;;;;;16.68;76.77;99449.00;3588734;40;20055;-70
2021/07/18 02:22:44;;;;;;;13.68;8.15;;;;;;;16.67;76.56;99436.72;3579575;40;20075;-70
2021/07/18 02:25:13;;;;;;;11.25;7.85;;;;;;;16.65;76.55;99443.28;3589225;40;20053;-70
2021/07/18 02:27:43;;;;;;;10.85;8.25;;;;;;;16.66;77.05;99448.44;3588894;40;20081;-70
2021/07/18 02:30:13;;;;;;;9.48;8.15;;;;;;;16.70;76.85;99457.63;3588738;40;20045;-69
2021/07/18 02:32:42;;;;;;;9.48;8.00;;;;;;;16.76;76.47;99448.78;3588873;40;20080;-70
2021/07/18 02:35:12;;;;;;;10.93;8.27;;;;;;;16.73;76.21;99446.53;3588886;40;20078;-70
2021/07/18 02:37:40;;;;;;;12.60;7.85;;;;;;;16.68;76.77;99449.00;3588746;40;20049;-70
2021/07/18 02:40:09;;;;;;;9.13;8.02;;;;;;;16.56;76.53;99448.06;3588468;40;20092;-70
2021/07/18 02:42:37;;;;;;;10.75;7.63;;;;;;;16.42;76.45;99451.88;3589064;40;20044;-70
2021/07/18 02:45:08;;;;;;;10.68;7.75;;;;;;;16.39;76.86;99446.94;3589038;40;20403;-69
2021/07/18 02:47:36;;;;;;;11.63;7.85;;;;;;;16.40;76.62;99445.91;3582071;40;20074;-70
2021/07/18 02:50:05;;;;;;;9.55;7.85;;;;;;;16.45;76.91;99435.41;3591629;40;20050;-69
2021/07/18 02:52:33;;;;;;;13.00;8.45;;;;;;;16.45;76.62;99438.91;3592000;40;20048;-70
2021/07/18 02:55:00;;;;;;;12.63;7.55;;;;;;;16.46;76.20;99439.72;3591994;40;20059;-70
2021/07/18 02:57:28;;;;;;;9.18;7.78;;;;;;;16.38;76.77;99443.47;3591995;40;20085;-70
2021/07/18 02:59:56;;;;;;;13.60;7.68;;;;;;;16.33;76.79;99427.28;3591829;40;20079;-70
2021/07/18 03:02:25;;;;;;;12.32;8.43;;;;;;;16.29;76.45;99429.56;3592107;40;20056;-70
2021/07/18 03:04:53;;;;;;;12.77;7.57;;;;;;;16.22;76.76;99430.63;3591838;40;20060;-70
2021/07/18 03:07:21;;;;;;;10.80;7.60;;;;;;;16.16;76.68;99426.13;3591670;40;20104;-71
2021/07/18 03:09:48;;;;;;;9.38;7.60;;;;;;;16.16;76.99;99431.47;3592853;40;20412;-69
2021/07/18 03:12:16;;;;;;;12.45;7.55;;;;;;;16.05;76.79;99428.47;3586369;40;20155;-69
2021/07/18 03:14:44;;;;;;;9.02;6.80;;;;;;;15.97;77.25;99435.88;3595371;40;20057;-69
2021/07/18 03:17:11;;;;;;;17.15;6.65;;;;;;;15.92;76.94;99431.19;3585983;40;20044;-69
2021/07/18 03:19:40;;;;;;;12.75;6.65;;;;;;;15.92;77.23;99427.69;3584866;40;20080;-69
2021/07/18 03:22:09;;;;;;;10.45;6.07;;;;;;;15.94;76.93;99425.66;3595469;40;20067;-69
2021/07/18 03:24:37;;;;;;;10.35;6.15;;;;;;;16.00;76.90;99424.78;3585626;40;20044;-69
2021/07/18 03:27:05;;;;;;;9.13;7.07;;;;;;;16.03;76.82;99435.84;3594174;40;20048;-69
2021/07/18 03:29:33;;;;;;;9.48;6.30;;;;;;;16.03;76.55;99427.84;3593498;40;20033;-69
2021/07/18 03:32:00;;;;;;;7.63;5.60;;;;;;;16.03;76.36;99430.50;3593776;40;20036;-69
2021/07/18 03:34:29;;;;;;;10.45;5.32;;;;;;;16.07;76.50;99434.38;3584342;40;20040;-69
2021/07/18 03:36:58;;;;;;;10.60;5.28;;;;;;;16.09;75.89;99429.69;3593937;40;20126;-69
2021/07/18 03:39:26;;;;;;;8.57;5.18;;;;;;;16.09;75.95;99426.19;3583917;40;20053;-69
2021/07/18 03:41:54;;;;;;;10.27;5.13;;;;;;;16.11;75.98;99432.13;3593421;40;20125;-69
2021/07/18 03:44:21;;;;;;;10.50;5.53;;;;;;;16.12;76.12;99425.75;3584418;40;20079;-69
2021/07/18 03:46:49;;;;;;;11.25;6.15;;;;;;;16.03;75.31;99427.03;3593637;40;20368;-68
2021/07/18 03:49:17;;;;;;;7.32;6.45;;;;;;;15.93;76.04;99429.34;3593101;40;20055;-67
2021/07/18 03:51:45;;;;;;;10.40;6.00;;;;;;;15.90;75.94;99435.09;3593334;40;20054;-68
2021/07/18 03:54:14;;;;;;;7.30;6.35;;;;;;;15.82;76.37;99434.28;3584333;40;20068;-69
2021/07/18 03:56:42;;;;;;;10.63;6.05;;;;;;;15.76;76.57;99437.00;3592129;40;20140;-68
2021/07/18 03:59:09;;;;;;;8.05;6.30;;;;;;;15.76;76.54;99435.16;3580533;40;20053;-68
2021/07/18 04:01:37;;;;;;;9.55;5.82;;;;;;;15.82;76.53;99439.63;3581745;40;20044;-71
2021/07/18 04:04:05;;;;;;;8.18;4.97;;;;;;;15.91;76.37;99434.06;3590998;40;20076;-69
2021/07/18 04:06:33;;;;;;;8.77;5.50;;;;;;;16.00;75.72;99440.78;3583527;40;20084;-69
2021/07/18 04:09:01;;;;;;;8.90;4.88;;;;;;;16.03;75.71;99433.19;3592244;40;20044;-69
2021/07/18 04:11:30;;;;;;;7.68;4.88;;;;;;;16.05;75.36;99439.13;3582835;40;20093;-69
2021/07/18 04:13:57;;;;;;;5.72;3.88;;;;;;;16.04;75.31;99440.16;3582928;40;20055;-69
2021/07/18 04:16:25;;;;;;;7.63;3.80;;;;;;;16.09;75.41;99447.53;3592439;40;20417;-69
2021/07/18 04:18:53;;;;;;;7.25;4.80;;;;;;;16.07;75.14;99446.91;3582973;40;20053;-69
2021/07/18 04:21:21;;;;;;;8.05;4.90;;;;;;;16.04;75.00;99452.66;3592511;40;20051;-69
2021/07/18 04:23:49;;;;;;;6.30;4.20;;;;;;;16.08;75.22;99449.38;3592313;40;20053;-70
2021/07/18 04:26:17;;;;;;;9.43;4.78;;;;;;;16.12;75.12;99449.75;3592486;40;20330;-69
2021/07/18 04:28:46;;;;;;;6.97;5.40;;;;;;;16.11;74.87;99442.78;3582545;40;20040;-69
2021/07/18 04:31:14;;;;;;;5.90;5.20;;;;;;;16.10;74.93;99436.63;3591559;40;20048;-69
2021/07/18 04:33:43;;;;;;;8.85;5.78;;;;;;;16.15;75.09;99438.66;3582863;40;20044;-69
2021/07/18 04:36:11;;;;;;;7.13;4.88;;;;;;;16.20;75.22;99449.50;3582651;40;20060;-70
2021/07/18 04:38:39;;;;;;;7.43;5.32;;;;;;;16.28;75.17;99446.59;3581991;40;20084;-70
2021/07/18 04:41:06;;;;;;;6.95;5.57;;;;;;;16.37;74.52;99444.50;3582482;40;20056;-70
2021/07/18 04:43:34;;;;;;;6.03;4.70;;;;;;;16.37;74.41;99447.19;3582114;40;20071;-70
2021/07/18 04:46:04;;;;;;;12.85;6.03;;;;;;;16.49;74.46;99457.97;3591401;40;20334;-69
2021/07/18 04:48:32;;;;;;;7.28;4.70;;;;;;;16.51;74.39;99458.56;3590299;40;20314;-70
2021/07/18 04:51:00;;;;;;;6.63;4.85;;;;;;;16.53;74.34;99464.50;3589770;40;20321;-70
2021/07/18 04:53:28;;;;;;;10.18;4.45;;;;;;;16.55;74.13;99463.25;3581514;40;20374;-70
2021/07/18 04:55:57;;;;;;;5.35;4.32;;;;;;;16.55;74.47;99465.13;3590549;40;20394;-69
2021/07/18 04:58:25;;;;;;;7.22;4.60;;;;;;;16.58;73.99;99459.38;3589874;40;20053;-70
2021/07/18 05:00:53;;;;;;;9.90;5.28;;;;;;;16.65;74.41;99460.13;3580774;40;20088;-70
2021/07/18 05:03:22;;;;;;;10.77;5.05;;;;;;;16.74;74.51;99464.22;3590003;40;20325;-69
2021/07/18 05:05:50;;;;;;;8.70;5.30;;;;;;;16.87;74.44;99476.63;3590049;40;20048;-70
2021/07/18 05:08:18;;;;;;;6.18;5.00;;;;;;;16.94;74.21;99465.88;3580441;40;20592;-70
2021/07/18 05:10:46;;;;;;;6.18;5.13;;;;;;;16.98;73.88;99467.94;3589967;40;20052;-70
2021/07/18 05:13:13;;;;;;;5.90;4.38;;;;;;;17.02;74.07;99471.81;3580981;40;20359;-70
2021/07/18 05:15:41;;;;;;;7.68;4.93;;;;;;;17.08;73.49;99473.59;3589845;40;20052;-69
2021/07/18 05:18:11;;;;;;;8.07;4.90;;;;;;;17.15;73.32;99472.72;3589613;40;20072;-70
2021/07/18 05:20:41;;;;;;;9.15;4.03;;;;;;;17.17;73.76;99471.44;3590311;40;20049;-69
2021/07/18 05:23:10;;;;;;;11.20;4.82;;;;;;;17.22;73.87;99465.44;3590553;40;20049;-69
2021/07/18 05:25:38;;;;;;;6.28;4.43;;;;;;;17.25;73.25;99463.16;3581286;40;20082;-69
2021/07/18 05:28:07;;;;;;;7.05;4.40;;;;;;;17.28;72.99;99468.06;3590080;40;20044;-69
2021/07/18 05:30:35;;;;;;;7.30;4.85;;;;;;;17.31;73.12;99467.63;3582675;40;20048;-69
2021/07/18 05:33:02;;;;;;;6.70;4.80;;;;;;;17.39;73.79;99466.53;3584203;40;20047;-69
2021/07/18 05:35:30;;;;;;;13.60;5.50;;;;;;;17.46;73.70;99469.13;3593364;40;20056;-69
2021/07/18 05:37:59;;;;;;;11.30;7.32;;;;;;;17.58;73.25;99465.50;3593177;40;20039;-69
2021/07/18 05:40:27;;;;;;;15.27;10.52;;;;;;;17.65;73.56;99472.66;3591186;40;20037;-70
2021/07/18 05:42:55;;;;;;;9.00;5.30;;;;;;;17.73;73.27;99464.34;3590847;40;20060;-69
2021/07/18 05:45:23;;;;;;;9.07;3.35;;;;;;;17.74;72.34;99461.47;3591318;40;20088;-71
2021/07/18 05:47:51;;;;;;;5.00;3.10;;;;;;;17.80;72.47;99467.78;3593750;40;20052;-71
2021/07/18 05:50:19;;;;;;;7.25;3.60;;;;;;;17.77;72.04;99458.34;3594007;40;20048;-71
2021/07/18 05:52:46;;;;;;;5.05;2.65;;;;;;;17.76;71.82;99467.41;3594517;40;20396;-71
2021/07/18 05:55:16;;;;;;;3.95;2.83;;;;;;;17.80;71.99;99467.78;3585198;40;20401;-71
2021/07/18 05:57:44;;;;;;;5.72;3.28;;;;;;;17.94;71.88;99474.59;3594658;40;20143;-71
2021/07/18 06:00:13;;;;;;;4.78;2.90;;;;;;;18.04;71.58;99476.72;3594333;40;20376;-71
2021/07/18 06:02:42;;;;;;;6.28;2.75;;;;;;;18.09;70.89;99468.88;3594858;40;20052;-71
2021/07/18 06:05:11;;;;;;;5.15;2.53;;;;;;;18.04;70.82;99466.03;3585490;40;20050;-71
2021/07/18 06:07:39;;;;;;;4.30;2.42;;;;;;;18.11;71.33;99465.97;3593897;40;20387;-71
2021/07/18 06:10:08;;;;;;;5.38;2.13;;;;;;;18.21;70.56;99472.44;3572936;40;20385;-71
2021/07/18 06:12:37;;;;;;;2.80;2.20;;;;;;;18.23;70.49;99470.31;3592957;40;20057;-71
2021/07/18 06:15:06;;;;;;;5.25;2.40;;;;;;;18.36;70.19;99468.50;3594682;40;20398;-70
2021/07/18 06:17:35;;;;;;;2.78;2.17;;;;;;;18.43;69.06;99474.59;3563200;40;20063;-72
2021/07/18 06:20:05;;;;;;;4.80;2.90;;;;;;;18.51;69.60;99474.28;3592135;40;20394;-71
2021/07/18 06:22:33;;;;;;;5.20;2.67;;;;;;;18.60;69.12;99470.22;3594464;40;20060;-71
2021/07/18 06:25:01;;;;;;;7.47;2.50;;;;;;;18.72;69.23;99478.31;3583413;40;20403;-71
2021/07/18 06:27:29;;;;;;;3.60;1.80;;;;;;;18.65;68.24;99469.53;3648373;22;20059;-65
2021/07/18 06:29:58;;;;;;;2.95;2.13;;;;;;;18.55;68.41;99473.59;3588612;40;20051;-65
2021/07/18 06:32:27;;;;;;;4.90;2.50;;;;;;;18.58;68.38;99466.16;3588524;40;20129;-65
2021/07/18 06:34:55;;;;;;;4.75;2.58;;;;;;;18.69;68.57;99466.16;3588530;40;20048;-65
2021/07/18 06:37:22;;;;;;;5.78;3.65;;;;;;;18.88;68.22;99474.19;3588617;40;20070;-65
2021/07/18 06:39:50;;;;;;;3.13;2.33;;;;;;;19.07;66.62;99462.31;3578965;40;20052;-64
2021/07/18 06:42:18;;;;;;;4.05;2.85;;;;;;;19.17;66.66;99472.47;3579386;40;20053;-65
2021/07/18 06:44:46;;;;;;;5.68;2.80;;;;;;;19.31;66.38;99473.88;3588762;40;20324;-65
2021/07/18 06:47:15;;;;;;;4.38;2.63;;;;;;;19.41;65.69;99470.59;3588673;40;20117;-65
2021/07/18 06:49:43;;;;;;;3.45;2.70;;;;;;;19.57;65.49;99472.56;3588396;40;20369;-66
2021/07/18 06:52:11;;;;;;;5.28;3.28;;;;;;;19.70;64.69;99472.34;3588663;40;20402;-64
2021/07/18 06:54:47;;;;;;;4.90;2.30;;;;;;;19.76;64.08;99478.66;3588845;40;20314;-65
2021/07/18 06:57:14;;;;;;;8.25;2.67;;;;;;;19.83;64.15;99481.19;3588461;40;20129;-65
2021/07/18 06:59:42;;;;;;;4.50;2.08;;;;;;;19.82;63.57;99484.94;3588435;40;20042;-63
2021/07/18 07:02:10;;;;;;;5.90;2.67;;;;;;;19.95;63.13;99476.63;3588379;40;20316;-65
2021/07/18 07:04:40;;;;;;;7.65;2.60;;;;;;;20.06;62.90;99473.09;3588754;40;20052;-65
2021/07/18 07:07:07;;;;;;;5.03;1.75;;;;;;;20.03;61.60;99470.88;3579001;40;20144;-64
2021/07/18 07:09:35;;;;;;;5.22;1.70;;;;;;;20.08;61.35;99479.03;3588188;40;20395;-65
2021/07/18 07:12:03;;;;;;;3.45;2.00;;;;;;;20.17;60.06;99476.81;3588728;40;20049;-65
2021/07/18 07:14:31;;;;;;;2.33;1.80;;;;;;;20.24;58.20;99483.63;3579156;40;20061;-64
2021/07/18 07:16:59;;;;;;;2.00;1.80;;;;;;;20.21;57.84;99478.75;3588493;40;20117;-63
2021/07/18 07:19:27;;;;;;;3.65;1.85;;;;;;;20.26;57.93;99481.53;3588087;40;20407;-64
2021/07/18 07:21:56;;;;;;;5.85;1.60;;;;;;;20.37;56.70;99482.56;3588190;40;20048;-65
2021/07/18 07:24:24;;;;;;;10.15;5.00;;;;;;;20.47;55.30;99488.09;3588114;40;20413;-65
2021/07/18 07:26:52;;;;;;;3.92;2.00;;;;;;;20.53;54.54;99484.50;3588218;40;20393;-65
2021/07/18 07:29:20;;;;;;;3.33;1.65;;;;;;;20.57;53.87;99478.63;3588573;40;20048;-64
2021/07/18 07:31:48;;;;;;;3.83;1.42;;;;;;;20.60;52.99;99478.16;3588392;40;20048;-65
2021/07/18 07:34:15;;;;;;;1.83;1.50;;;;;;;20.59;52.74;99484.59;3589977;40;20060;-64
2021/07/18 07:36:43;;;;;;;2.65;1.60;;;;;;;20.63;53.12;99480.38;3580653;40;20060;-64
2021/07/18 07:39:12;;;;;;;2.90;1.60;;;;;;;20.71;53.20;99475.41;3589519;40;20037;-64
2021/07/18 07:41:40;;;;;;;3.05;1.40;;;;;;;20.80;52.61;99485.75;3589848;40;20056;-65
2021/07/18 07:44:08;;;;;;;2.60;1.55;;;;;;;20.83;53.15;99479.91;3589647;40;20055;-64
2021/07/18 07:46:36;;;;;;;1.65;1.50;;;;;;;20.87;52.28;99471.13;3589999;40;20060;-64
2021/07/18 07:49:04;;;;;;;2.00;1.30;;;;;;;20.91;52.65;99469.56;3591415;40;20052;-64
2021/07/18 07:51:32;;;;;;;1.45;1.13;;;;;;;21.06;51.84;99468.97;3592014;40;20407;-64
2021/07/18 07:54:00;;;;;;;4.40;1.50;;;;;;;21.12;51.09;99468.00;3590419;40;20044;-64
2021/07/18 07:56:29;;;;;;;3.95;1.50;;;;;;;21.16;51.43;99474.53;3589626;40;20047;-64
2021/07/18 07:58:57;;;;;;;2.28;1.48;;;;;;;21.07;50.53;99473.31;3589401;40;20040;-67
2021/07/18 08:01:25;;;;;;;2.33;1.13;;;;;;;21.17;50.80;99476.16;3593093;40;20077;-65
2021/07/18 08:03:53;;;;;;;3.33;2.15;;;;;;;21.24;50.16;99476.81;3593087;40;20092;-65
2021/07/18 08:06:21;;;;;;;2.22;1.33;;;;;;;21.33;50.42;99471.03;3583682;40;20050;-66
2021/07/18 08:08:48;;;;;;;2.15;1.27;;;;;;;21.39;50.25;99475.41;3593021;40;20329;-66
2021/07/18 08:11:16;;;;;;;2.08;1.33;;;;;;;21.43;50.57;99471.19;3593277;40;20082;-65
2021/07/18 08:13:45;;;;;;;3.15;1.38;;;;;;;21.26;51.04;99468.47;3593394;40;20025;-65
2021/07/18 08:16:13;;;;;;;2.47;1.65;;;;;;;21.43;50.65;99468.50;3591721;40;20106;-67
2021/07/18 08:18:41;;;;;;;3.03;1.55;;;;;;;21.46;51.07;99466.13;3591903;40;20106;-65
2021/07/18 08:21:08;;;;;;;4.25;1.65;;;;;;;21.59;50.99;99462.25;3592998;40;20044;-65
2021/07/18 08:23:37;;;;;;;3.65;1.55;;;;;;;21.79;50.35;99456.34;3592139;40;20051;-64
2021/07/18 08:26:05;;;;;;;1.65;1.52;;;;;;;21.97;50.13;99458.72;3593455;40;20036;-65
2021/07/18 08:28:33;;;;;;;4.05;1.50;;;;;;;22.07;49.67;99449.13;3591828;40;20051;-64
2021/07/18 08:31:02;;;;;;;4.28;1.63;;;;;;;22.14;49.37;99453.28;3591438;40;20071;-66
2021/07/18 08:33:29;;;;;;;3.40;1.42;;;;;;;22.10;49.28;99451.31;3592003;40;20029;-64
2021/07/18 08:35:58;;;;;;;6.45;4.10;;;;;;;22.13;48.47;99445.47;3582928;40;20405;-65
2021/07/18 08:38:25;;;;;;;4.00;1.50;;;;;;;22.05;49.01;99449.41;3592039;40;20411;-64
2021/07/18 08:40:55;;;;;;;2.22;1.38;;;;;;;21.96;48.90;99442.81;3592221;40;20098;-64
2021/07/18 08:43:43;;;;;;;3.10;2.00;;;;;;;22.21;48.25;99442.34;3593356;40;20041;-65
2021/07/18 08:46:13;;;;;;;2.22;1.90;;;;;;;22.35;47.92;99442.75;3581829;40;20384;-65
2021/07/18 08:48:41;;;;;;;4.50;1.80;;;;;;;22.42;48.00;99446.06;3590151;40;20056;-65
2021/07/18 08:51:09;;;;;;;3.13;1.90;;;;;;;22.36;47.64;99450.56;3581219;40;20051;-63
2021/07/18 08:53:37;;;;;;;2.28;1.40;;;;;;;22.43;47.29;99444.97;3590498;40;20085;-65
2021/07/18 08:56:05;;;;;;;1.63;1.40;;;;;;;22.47;47.46;99438.00;3589972;40;20048;-64
2021/07/18 08:58:33;;;;;;;3.03;1.50;;;;;;;22.39;48.41;99441.97;3580797;40;20077;-65
2021/07/18 09:01:00;;;;;;;2.22;1.50;;;;;;;22.63;46.77;99439.78;3590172;40;20106;-64
2021/07/18 09:03:35;;;;;;;3.22;2.00;;;;;;;22.71;46.65;99433.09;3580716;40;20393;-64
2021/07/18 09:06:10;;;;;;;2.85;1.58;;;;;;;22.78;46.65;99431.03;3589654;40;20052;-64
2021/07/18 09:08:43;;;;;;;5.05;1.73;;;;;;;22.88;46.66;99423.00;3589111;40;20479;-64
2021/07/18 09:11:19;;;;;;;4.88;2.00;;;;;;;23.03;45.93;99425.03;3589691;40;20052;-65
2021/07/18 09:14:01;;;;;;;3.45;1.63;;;;;;;23.05;46.01;99428.28;3589210;40;20384;-65
2021/07/18 09:16:32;;;;;;;4.95;2.05;;;;;;;22.94;45.94;99430.09;3589477;40;20622;-65
2021/07/18 09:19:26;;;;;;;4.43;2.08;;;;;;;23.02;46.00;99430.66;3589086;40;20054;-66
2021/07/18 09:22:09;;;;;;;2.67;1.48;;;;;;;22.91;46.38;99427.91;3589578;40;20048;-64
2021/07/18 09:24:39;;;;;;;3.22;1.90;;;;;;;23.06;46.78;99426.38;3589306;40;20025;-65
2021/07/18 09:27:10;;;;;;;4.07;1.75;;;;;;;23.32;45.80;99425.50;3590167;40;20129;-64
2021/07/18 09:29:41;;;;;;;5.03;2.38;;;;;;;23.30;45.68;99427.63;3590391;40;20074;-65
2021/07/18 09:32:11;;;;;;;1.80;1.45;;;;;;;23.35;46.02;99418.75;3590029;40;20048;-65
2021/07/18 09:34:42;;;;;;;4.47;1.98;;;;;;;23.44;45.68;99422.59;3589548;40;20051;-64
2021/07/18 09:37:18;;;;;;;3.55;1.83;;;;;;;23.38;45.41;99423.63;3579928;40;20084;-65
2021/07/18 09:39:56;;;;;;;5.03;2.28;;;;;;;23.54;45.72;99419.94;3589000;40;20150;-65
2021/07/18 09:42:41;;;;;;;5.55;1.80;;;;;;;23.62;45.08;99419.44;3589340;40;20291;-64
2021/07/18 09:45:17;;;;;;;5.30;2.63;;;;;;;23.66;44.46;99415.16;3580125;40;20422;-63
2021/07/18 09:47:54;;;;;;;3.20;2.10;;;;;;;23.72;44.31;99407.91;3579929;40;20398;-64
2021/07/18 09:50:27;;;;;;;4.20;2.22;;;;;;;23.90;43.76;99403.91;3587797;40;20080;-65
2021/07/18 09:53:13;;;;;;;5.35;3.38;;;;;;;23.93;43.50;99398.00;3579623;40;20041;-64
2021/07/18 09:55:56;;;;;;;8.77;3.15;;;;;;;23.88;43.34;99401.50;3588190;40;20048;-64
2021/07/18 09:58:25;;;;;;;4.05;2.42;;;;;;;23.94;43.44;99394.22;3588785;40;20080;-65
2021/07/18 10:00:53;;;;;;;4.25;2.17;;;;;;;24.05;43.20;99397.75;3580011;40;20273;-65
2021/07/18 10:03:23;;;;;;;4.68;2.30;;;;;;;24.01;44.18;99391.28;3588015;40;20073;-65
2021/07/18 10:06:12;;;;;;;5.22;3.17;;;;;;;24.13;43.99;99402.63;3589533;40;20052;-66
2021/07/18 10:08:41;;;;;;;2.33;1.63;;;;;;;24.14;43.29;99399.66;3579185;40;20057;-63
2021/07/18 10:11:11;;;;;;;5.65;2.40;;;;;;;24.15;43.89;99400.47;3588814;40;20085;-65
2021/07/18 10:13:40;;;;;;;3.88;2.05;;;;;;;24.30;43.58;99389.69;3579660;40;20125;-65
2021/07/18 10:16:09;;;;;;;5.95;1.60;;;;;;;24.39;43.89;99395.41;3588635;40;20052;-64
2021/07/18 10:18:38;;;;;;;4.38;1.40;;;;;;;24.45;43.34;99389.75;3588650;40;20041;-64
2021/07/18 10:21:08;;;;;;;4.00;1.77;;;;;;;24.36;43.85;99391.31;3579615;40;20106;-64
2021/07/18 10:23:39;;;;;;;2.85;1.50;;;;;;;24.36;44.08;99387.78;3579692;40;20056;-64
2021/07/18 10:26:16;;;;;;;3.25;1.50;;;;;;;24.46;43.50;99385.97;3588809;40;20048;-65
2021/07/18 10:28:45;;;;;;;2.33;1.40;;;;;;;24.64;43.12;99381.91;3589475;40;20048;-63
2021/07/18 10:31:19;;;;;;;4.45;1.88;;;;;;;24.82;43.47;99387.81;3589039;40;20125;-66
2021/07/18 10:33:49;;;;;;;1.73;1.30;;;;;;;24.89;42.97;99391.06;3589636;40;20298;-64
2021/07/18 10:36:20;;;;;;;5.10;1.42;;;;;;;24.85;42.83;99388.09;3580099;40;20084;-64
2021/07/18 10:38:49;;;;;;;2.92;1.42;;;;;;;24.93;43.05;99381.34;3588758;40;20059;-63
2021/07/18 10:41:17;;;;;;;1.90;1.23;;;;;;;24.96;42.57;99375.38;3589486;40;20024;-64
2021/07/18 10:43:47;;;;;;;2.40;1.60;;;;;;;24.94;43.09;99372.97;3589595;40;20060;-63
2021/07/18 10:46:16;;;;;;;3.20;1.15;;;;;;;25.09;43.41;99385.66;3590159;40;20020;-63
2021/07/18 10:48:49;;;;;;;4.63;1.60;;;;;;;25.07;42.56;99387.81;3590558;40;20430;-64
2021/07/18 10:51:18;;;;;;;3.15;1.58;;;;;;;25.10;43.18;99376.44;3590785;40;20109;-64
2021/07/18 10:53:47;;;;;;;2.78;1.15;;;;;;;25.16;42.55;99371.88;3582999;40;20055;-64
2021/07/18 10:56:20;;;;;;;3.42;1.23;;;;;;;25.21;42.85;99377.25;3593635;40;20228;-64
2021/07/18 10:58:54;;;;;;;;;;;;;;;25.35;40.96;99363.94;3593771;40;20049;-64
2021/07/18 11:01:39;;;;;;;2.55;1.20;;;;;;;25.30;41.67;99350.44;3592928;40;19960;-65
2021/07/18 11:04:42;;;;;;;3.17;1.30;;;;;;;25.38;41.61;99356.09;3591002;40;20486;-65
2021/07/18 11:07:29;;;;;;;1.58;1.05;;;;;;;25.26;42.36;99344.75;3592123;40;20036;-64
2021/07/18 11:10:00;;;;;;;1.33;1.05;;;;;;;25.32;42.31;99356.41;3594125;40;20048;-64
2021/07/18 11:12:31;;;;;;;2.25;1.30;;;;;;;25.28;43.01;99347.22;3594104;40;20055;-63
2021/07/18 11:15:21;;;;;;;1.48;1.15;;;;;;;25.14;42.90;99358.59;3593411;40;20494;-64
2021/07/18 11:18:01;;;;;;;2.67;1.58;;;;;;;25.09;43.01;99345.09;3592568;40;20037;-64
2021/07/18 11:20:44;;;;;;;3.20;1.42;;;;;;;25.09;43.24;99341.56;3593992;40;20048;-64
2021/07/18 11:23:14;;;;;;;2.28;1.35;;;;;;;25.23;42.76;99339.09;3584032;40;20077;-64
2021/07/18 11:26:09;;;;;;;4.78;1.35;;;;;;;25.54;42.38;99345.19;3581949;40;20084;-64
2021/07/18 11:29:06;;;;;;;3.22;1.13;;;;;;;25.48;41.34;99344.44;3590455;40;20037;-63
2021/07/18 11:31:39;;;;;;;3.30;1.10;;;;;;;25.48;41.82;99344.44;3590483;40;20087;-64
2021/07/18 11:34:19;;;;;;;4.10;1.10;;;;;;;25.64;41.70;99345.16;3581747;40;20059;-64
2021/07/18 11:37:05;;;;;;;1.73;1.10;;;;;;;25.79;41.76;99341.59;3592053;40;20083;-63
2021/07/18 11:39:35;;;;;;;2.22;1.20;;;;;;;25.89;41.91;99345.06;3591745;40;20049;-65
2021/07/18 11:42:05;;;;;;;3.35;1.42;;;;;;;25.78;42.63;99334.56;3590541;40;20057;-62